Terminal Aerodrome Forecast
Issued by NWS

Home | Current Version | Previous Version | Graphics & Text | Print | Product List | Glossary On
Versions: 1 2 3 4 5 6 7 8 9 10 11 12 13 14 15
336
FTUS43 KBIS 151730
TAFMOT
TAF
KMOT 151730Z 1518/1618 31014KT P6SM SKC
     FM152200 32009KT P6SM SKC
     FM160400 26006KT P6SM SKC
     FM160800 23006KT P6SM SKC
     FM161500 20009KT P6SM FEW120=

USA.gov is the U.S. government's official web portal to all federal, state and local government web resources and services.